Time;durP1;ratioP1;P1;durP2;ratioP2;P2;SDS_P1;SDS_P2;PMS_P1;PMS_P2;Temp;Humidity;BMP_temperature;BMP_pressure;BME280_temperature;BME280_humidity;BME280_pressure;Samples;Min_cycle;Max_cycle;Signal;HPM_P1;HPM_P2
2022/01/26 00:06:08;;;;;;;;;;;22.60;29.70;;;;;;466964;255;1320;-40
2022/01/26 00:08:06;;;;;;;;;;;22.70;29.80;;;;;;466646;255;2188;-40
2022/01/26 00:10:07;;;;;;;;;;;22.70;29.70;;;;;;466675;254;2429;-40
2022/01/26 00:12:09;;;;;;;;;;;22.70;29.70;;;;;;466874;254;1436;-40
2022/01/26 00:14:12;;;;;;;;;;;22.70;29.70;;;;;;467026;254;2265;-40
2022/01/26 00:16:21;;;;;;;;;;;22.70;29.70;;;;;;466754;254;2237;-40
2022/01/26 00:18:14;;;;;;;;;;;22.70;29.70;;;;;;466091;255;1381;-40
2022/01/26 00:20:20;;;;;;;;;;;22.70;29.70;;;;;;466830;254;2083;-40
2022/01/26 00:22:35;;;;;;;;;;;22.70;29.70;;;;;;466300;255;1824;-40
2022/01/26 00:26:32;;;;;;;;;;;22.70;29.70;;;;;;466756;254;1292;-40
2022/01/26 00:28:56;;;;;;;;;;;22.70;29.70;;;;;;466419;255;1416;-40
2022/01/26 00:33:07;;;;;;;;;;;22.70;29.70;;;;;;467097;255;1246;-40
2022/01/26 00:39:37;;;;;;;;;;;22.70;29.70;;;;;;466990;255;1077;-40
2022/01/26 00:41:40;;;;;;;;;;;22.70;29.70;;;;;;466726;254;1081;-40
2022/01/26 00:43:42;;;;;;;;;;;22.70;29.70;;;;;;466566;255;2203;-40
2022/01/26 00:45:41;;;;;;;;;;;22.70;29.70;;;;;;466965;254;2181;-40
2022/01/26 00:47:42;;;;;;;;;;;22.70;29.70;;;;;;466664;254;1441;-40
2022/01/26 00:49:43;;;;;;;;;;;22.70;29.70;;;;;;467100;254;964;-40
2022/01/26 00:51:45;;;;;;;;;;;22.80;29.70;;;;;;466589;254;1066;-40
2022/01/26 00:53:49;;;;;;;;;;;22.80;29.70;;;;;;466636;254;1062;-40
2022/01/26 00:55:47;;;;;;;;;;;22.80;29.70;;;;;;466450;255;2102;-40
2022/01/26 00:57:49;;;;;;;;;;;22.80;29.70;;;;;;466803;254;1233;-40
2022/01/26 00:59:50;;;;;;;;;;;22.80;29.70;;;;;;467366;254;1069;-40
2022/01/26 01:01:51;;;;;;;;;;;22.80;29.70;;;;;;467044;254;1251;-40
2022/01/26 01:03:53;;;;;;;;;;;22.80;29.70;;;;;;466791;254;1222;-40
2022/01/26 01:05:59;;;;;;;;;;;22.80;29.70;;;;;;466611;254;2121;-40
2022/01/26 01:08:02;;;;;;;;;;;22.80;29.70;;;;;;466396;255;1543;-40
2022/01/26 01:09:58;;;;;;;;;;;22.80;29.60;;;;;;466349;255;2167;-40
2022/01/26 01:11:58;;;;;;;;;;;22.80;29.70;;;;;;466759;255;2645;-40
2022/01/26 01:14:00;;;;;;;;;;;22.80;29.60;;;;;;466722;254;1126;-40
2022/01/26 01:16:01;;;;;;;;;;;22.80;29.60;;;;;;466718;254;1156;-40
2022/01/26 01:18:10;;;;;;;;;;;22.80;29.60;;;;;;466682;254;1089;-40
2022/01/26 01:20:14;;;;;;;;;;;22.90;29.70;;;;;;466399;255;1415;-40
2022/01/26 01:22:33;;;;;;;;;;;22.80;29.70;;;;;;466290;255;1852;-40
2022/01/26 01:24:55;;;;;;;;;;;22.80;29.70;;;;;;465915;255;2273;-40
2022/01/26 01:27:02;;;;;;;;;;;22.80;29.70;;;;;;465684;255;2260;-40
2022/01/26 01:29:10;;;;;;;;;;;22.90;29.70;;;;;;466226;255;2049;-40
2022/01/26 01:31:11;;;;;;;;;;;22.80;29.70;;;;;;466323;255;2249;-40
2022/01/26 01:33:07;;;;;;;;;;;22.80;29.70;;;;;;466112;255;2298;-40
2022/01/26 01:35:09;;;;;;;;;;;22.90;29.70;;;;;;466614;254;1827;-40
2022/01/26 01:37:09;;;;;;;;;;;22.90;29.70;;;;;;466535;255;2187;-40
2022/01/26 01:39:09;;;;;;;;;;;22.90;29.70;;;;;;466633;255;1658;-40
2022/01/26 01:41:11;;;;;;;;;;;22.90;29.70;;;;;;466618;254;1399;-40
2022/01/26 01:43:12;;;;;;;;;;;22.90;29.70;;;;;;466958;254;1331;-40
2022/01/26 01:45:13;;;;;;;;;;;22.90;29.70;;;;;;466954;254;2209;-40
2022/01/26 01:47:15;;;;;;;;;;;22.90;29.70;;;;;;466595;254;1426;-40
2022/01/26 01:49:16;;;;;;;;;;;22.80;29.70;;;;;;466837;254;1067;-40
2022/01/26 01:51:18;;;;;;;;;;;22.90;29.70;;;;;;466671;254;1263;-40
2022/01/26 01:53:19;;;;;;;;;;;22.90;29.70;;;;;;466988;255;2149;-40
2022/01/26 01:55:25;;;;;;;;;;;22.90;29.70;;;;;;467057;255;1211;-40
2022/01/26 01:57:23;;;;;;;;;;;22.90;29.70;;;;;;466382;255;2514;-40
2022/01/26 01:59:23;;;;;;;;;;;22.90;29.70;;;;;;466547;255;2414;-40
2022/01/26 02:01:24;;;;;;;;;;;22.90;29.70;;;;;;466592;254;1372;-40
2022/01/26 02:03:25;;;;;;;;;;;22.90;29.70;;;;;;466836;254;1082;-40
2022/01/26 02:05:27;;;;;;;;;;;22.90;29.70;;;;;;466990;254;2126;-40
2022/01/26 02:07:28;;;;;;;;;;;22.90;29.70;;;;;;466779;254;1200;-40
2022/01/26 02:09:29;;;;;;;;;;;22.90;29.70;;;;;;466962;254;1058;-40
2022/01/26 02:11:31;;;;;;;;;;;22.90;29.60;;;;;;466770;254;1260;-40
2022/01/26 02:13:39;;;;;;;;;;;22.90;29.70;;;;;;466614;254;1170;-40
2022/01/26 02:15:41;;;;;;;;;;;22.90;29.70;;;;;;466285;255;2265;-40
2022/01/26 02:17:56;;;;;;;;;;;23.00;29.70;;;;;;466401;255;1872;-40
2022/01/26 02:20:01;;;;;;;;;;;22.90;29.70;;;;;;465589;255;1454;-40
2022/01/26 02:52:24;;;;;;;;;;;23.00;29.60;;;;;;466470;256;1526;-40
2022/01/26 02:57:00;;;;;;;;;;;23.00;29.60;;;;;;462796;256;1226;-40
2022/01/26 03:03:53;;;;;;;;;;;23.00;29.60;;;;;;462792;255;1443;-40
2022/01/26 03:05:53;;;;;;;;;;;23.00;29.60;;;;;;466294;255;2266;-40
2022/01/26 03:07:54;;;;;;;;;;;23.00;29.60;;;;;;466341;255;2476;-40
2022/01/26 03:09:59;;;;;;;;;;;23.00;29.70;;;;;;466388;255;1956;-40
2022/01/26 03:11:52;;;;;;;;;;;23.00;29.60;;;;;;466029;255;2029;-40
2022/01/26 03:13:59;;;;;;;;;;;23.00;29.60;;;;;;464956;254;1499;-40
2022/01/26 03:15:58;;;;;;;;;;;23.10;29.70;;;;;;464401;255;2187;-40
2022/01/26 03:20:19;;;;;;;;;;;23.10;29.60;;;;;;466594;255;1598;-40
2022/01/26 03:29:39;;;;;;;;;;;23.10;29.60;;;;;;466867;255;1273;-40
2022/01/26 03:33:56;;;;;;;;;;;23.00;29.60;;;;;;466551;255;1559;-40
2022/01/26 03:35:57;;;;;;;;;;;23.10;29.60;;;;;;466430;255;2461;-40
2022/01/26 03:37:57;;;;;;;;;;;23.10;29.70;;;;;;466929;254;2020;-40
2022/01/26 03:39:57;;;;;;;;;;;23.10;29.70;;;;;;466670;255;2301;-40
2022/01/26 03:42:05;;;;;;;;;;;23.10;29.60;;;;;;466721;254;1169;-40
2022/01/26 03:44:04;;;;;;;;;;;23.10;29.60;;;;;;466876;255;2132;-40
2022/01/26 03:46:05;;;;;;;;;;;23.10;29.60;;;;;;466595;254;2197;-40
2022/01/26 03:48:06;;;;;;;;;;;23.10;29.70;;;;;;466757;254;1065;-40
2022/01/26 03:50:07;;;;;;;;;;;23.10;29.60;;;;;;466759;254;1228;-40
2022/01/26 03:52:10;;;;;;;;;;;23.10;29.70;;;;;;466602;254;1158;-40
2022/01/26 03:54:10;;;;;;;;;;;23.10;29.60;;;;;;466694;254;2330;-40
2022/01/26 03:56:11;;;;;;;;;;;23.10;29.70;;;;;;466619;254;1180;-40
2022/01/26 03:58:13;;;;;;;;;;;23.00;29.70;;;;;;466999;254;1264;-40
2022/01/26 04:00:14;;;;;;;;;;;22.90;29.70;;;;;;466806;254;1144;-40
2022/01/26 04:02:15;;;;;;;;;;;22.70;29.90;;;;;;466593;254;1286;-40
2022/01/26 04:04:17;;;;;;;;;;;22.50;30.20;;;;;;466793;254;1070;-40
2022/01/26 04:06:18;;;;;;;;;;;22.40;30.40;;;;;;466609;254;2213;-40
2022/01/26 04:08:24;;;;;;;;;;;22.30;30.70;;;;;;467078;254;1058;-40
2022/01/26 04:10:31;;;;;;;;;;;22.20;30.70;;;;;;466581;255;1786;-40
2022/01/26 04:12:22;;;;;;;;;;;22.10;30.80;;;;;;466006;255;1327;-40
2022/01/26 04:14:28;;;;;;;;;;;22.10;31.00;;;;;;466643;254;1529;-40
2022/01/26 04:16:25;;;;;;;;;;;22.10;31.00;;;;;;466399;255;1591;-40
2022/01/26 04:18:34;;;;;;;;;;;22.00;31.10;;;;;;466712;254;1068;-40
2022/01/26 04:20:31;;;;;;;;;;;21.90;31.10;;;;;;466182;255;1321;-40
2022/01/26 04:22:35;;;;;;;;;;;21.90;31.10;;;;;;466646;255;2081;-40
2022/01/26 04:24:35;;;;;;;;;;;21.90;31.20;;;;;;466286;255;1440;-40
2022/01/26 04:26:36;;;;;;;;;;;21.90;31.20;;;;;;466437;255;2329;-40
2022/01/26 04:28:39;;;;;;;;;;;21.90;31.20;;;;;;466597;255;2016;-40
2022/01/26 04:30:34;;;;;;;;;;;21.90;31.20;;;;;;466240;255;2085;-40
2022/01/26 04:32:35;;;;;;;;;;;21.90;31.30;;;;;;466627;254;1170;-40
2022/01/26 04:34:37;;;;;;;;;;;21.80;31.30;;;;;;466858;254;979;-40
2022/01/26 04:36:43;;;;;;;;;;;21.80;31.30;;;;;;466770;254;1229;-40
2022/01/26 04:38:44;;;;;;;;;;;21.80;31.40;;;;;;466764;255;2079;-40
2022/01/26 04:40:48;;;;;;;;;;;21.70;31.40;;;;;;466659;255;2432;-40
2022/01/26 04:42:50;;;;;;;;;;;21.70;31.40;;;;;;466146;255;2313;-40
2022/01/26 04:44:49;;;;;;;;;;;21.70;31.50;;;;;;466208;255;2083;-40
2022/01/26 04:46:45;;;;;;;;;;;21.70;31.50;;;;;;466175;255;2451;-40
2022/01/26 04:48:46;;;;;;;;;;;21.60;31.50;;;;;;466710;254;1075;-40
2022/01/26 04:50:48;;;;;;;;;;;21.60;31.50;;;;;;466583;254;1299;-40
2022/01/26 04:52:49;;;;;;;;;;;21.60;31.60;;;;;;466640;254;1295;-40
2022/01/26 04:54:50;;;;;;;;;;;21.60;31.60;;;;;;466659;254;1059;-40
2022/01/26 04:56:52;;;;;;;;;;;21.60;31.70;;;;;;466620;254;1156;-40
2022/01/26 04:58:53;;;;;;;;;;;21.50;31.70;;;;;;466688;254;1082;-40
2022/01/26 05:00:54;;;;;;;;;;;21.50;31.70;;;;;;466763;254;1333;-40
2022/01/26 05:02:56;;;;;;;;;;;21.50;31.80;;;;;;466737;254;1128;-40
2022/01/26 05:04:57;;;;;;;;;;;21.40;31.80;;;;;;466677;254;1082;-40
2022/01/26 05:06:58;;;;;;;;;;;21.40;31.80;;;;;;466678;254;2197;-40
2022/01/26 05:09:00;;;;;;;;;;;21.40;31.80;;;;;;466693;254;1111;-40
2022/01/26 05:11:02;;;;;;;;;;;21.40;31.80;;;;;;466598;254;1174;-40
2022/01/26 05:13:02;;;;;;;;;;;21.40;31.80;;;;;;466893;254;2332;-40
2022/01/26 05:15:03;;;;;;;;;;;21.40;31.90;;;;;;466601;254;1098;-40
2022/01/26 05:17:05;;;;;;;;;;;21.40;31.90;;;;;;466924;254;1079;-40
2022/01/26 05:19:06;;;;;;;;;;;21.40;31.90;;;;;;466571;254;1075;-40
2022/01/26 05:21:07;;;;;;;;;;;21.40;31.90;;;;;;466816;254;1223;-40
2022/01/26 05:23:09;;;;;;;;;;;21.40;31.90;;;;;;466691;255;1064;-40
2022/01/26 05:25:10;;;;;;;;;;;21.40;31.90;;;;;;466969;254;1018;-40
2022/01/26 05:27:11;;;;;;;;;;;21.30;31.90;;;;;;466935;254;2189;-40
2022/01/26 05:29:13;;;;;;;;;;;21.30;31.90;;;;;;466637;254;1151;-40
2022/01/26 05:31:14;;;;;;;;;;;21.30;31.90;;;;;;466620;254;1248;-40
2022/01/26 05:33:15;;;;;;;;;;;21.30;31.90;;;;;;466922;254;1086;-40
2022/01/26 05:35:17;;;;;;;;;;;21.30;31.90;;;;;;466603;254;1192;-40
2022/01/26 05:37:18;;;;;;;;;;;21.30;32.00;;;;;;466540;254;1287;-39
2022/01/26 05:39:19;;;;;;;;;;;21.30;31.90;;;;;;466701;254;1097;-40
2022/01/26 05:41:21;;;;;;;;;;;21.30;31.90;;;;;;466552;254;1180;-40
2022/01/26 05:43:22;;;;;;;;;;;21.30;31.90;;;;;;466707;254;1001;-40
2022/01/26 05:45:29;;;;;;;;;;;21.30;31.90;;;;;;466626;254;1279;-40
2022/01/26 05:47:26;;;;;;;;;;;21.20;31.90;;;;;;466311;255;2301;-40
2022/01/26 05:49:27;;;;;;;;;;;21.20;31.90;;;;;;466550;254;1110;-40
2022/01/26 05:51:31;;;;;;;;;;;21.20;31.90;;;;;;466508;254;1229;-40
2022/01/26 05:53:31;;;;;;;;;;;21.20;31.90;;;;;;466283;255;2323;-39
2022/01/26 05:55:31;;;;;;;;;;;21.20;32.00;;;;;;466432;251;1580;-40
2022/01/26 05:57:33;;;;;;;;;;;21.20;32.00;;;;;;466495;254;1269;-40
2022/01/26 05:59:34;;;;;;;;;;;21.20;31.90;;;;;;466504;254;1341;-40
2022/01/26 06:01:35;;;;;;;;;;;21.20;31.90;;;;;;466605;254;1238;-40
2022/01/26 06:03:36;;;;;;;;;;;21.20;32.00;;;;;;466568;254;1284;-40
2022/01/26 06:05:38;;;;;;;;;;;21.20;32.00;;;;;;466514;254;1244;-40
2022/01/26 06:07:39;;;;;;;;;;;21.20;32.00;;;;;;466522;254;2142;-40
2022/01/26 06:09:40;;;;;;;;;;;21.20;32.00;;;;;;466580;254;1182;-40
2022/01/26 06:11:42;;;;;;;;;;;21.20;32.00;;;;;;466289;254;1090;-40
2022/01/26 06:13:43;;;;;;;;;;;21.20;32.00;;;;;;466348;254;1170;-40
2022/01/26 06:15:44;;;;;;;;;;;21.10;32.00;;;;;;466314;254;1190;-40
2022/01/26 06:17:46;;;;;;;;;;;21.10;32.10;;;;;;466394;254;1112;-40
2022/01/26 06:19:47;;;;;;;;;;;21.10;32.10;;;;;;466380;254;1087;-40
2022/01/26 06:21:48;;;;;;;;;;;21.10;32.10;;;;;;466411;254;1078;-39
2022/01/26 06:23:50;;;;;;;;;;;21.10;32.10;;;;;;466385;254;1120;-40
2022/01/26 06:25:51;;;;;;;;;;;21.10;32.20;;;;;;466521;254;1070;-40
2022/01/26 06:27:55;;;;;;;;;;;21.10;32.20;;;;;;466398;254;2200;-40
2022/01/26 06:29:54;;;;;;;;;;;21.10;32.10;;;;;;466243;255;2360;-40
2022/01/26 06:31:55;;;;;;;;;;;21.10;32.10;;;;;;466419;254;1303;-40
2022/01/26 06:33:57;;;;;;;;;;;21.10;32.10;;;;;;466410;254;1108;-40
2022/01/26 06:35:59;;;;;;;;;;;21.10;32.10;;;;;;466212;254;1259;-40
2022/01/26 06:37:59;;;;;;;;;;;21.10;32.10;;;;;;466388;255;2417;-40
2022/01/26 06:40:01;;;;;;;;;;;21.10;32.10;;;;;;466349;254;1108;-40
2022/01/26 06:42:10;;;;;;;;;;;21.10;32.10;;;;;;466380;254;1226;-40
2022/01/26 06:44:13;;;;;;;;;;;21.10;32.10;;;;;;466001;255;1232;-40
2022/01/26 06:46:07;;;;;;;;;;;21.10;32.10;;;;;;465652;255;2300;-40
2022/01/26 06:50:25;;;;;;;;;;;21.10;32.10;;;;;;466437;255;1146;-40
2022/01/26 06:52:27;;;;;;;;;;;21.10;32.00;;;;;;466222;254;1421;-39
2022/01/26 06:54:28;;;;;;;;;;;21.10;32.00;;;;;;466410;254;1135;-40
2022/01/26 06:56:29;;;;;;;;;;;21.10;32.00;;;;;;466297;254;1152;-40
2022/01/26 06:58:30;;;;;;;;;;;21.10;32.00;;;;;;466327;254;1276;-40
2022/01/26 07:00:32;;;;;;;;;;;21.10;32.00;;;;;;466318;254;1085;-40
2022/01/26 07:02:33;;;;;;;;;;;21.10;32.00;;;;;;466182;254;1224;-40
2022/01/26 07:04:34;;;;;;;;;;;21.10;32.00;;;;;;466256;254;1086;-40
2022/01/26 07:06:36;;;;;;;;;;;21.10;32.00;;;;;;466166;254;2142;-40
2022/01/26 07:08:37;;;;;;;;;;;21.10;32.00;;;;;;466142;254;1130;-40
2022/01/26 07:10:38;;;;;;;;;;;21.10;32.00;;;;;;466122;254;1363;-40
2022/01/26 07:12:40;;;;;;;;;;;21.10;32.00;;;;;;466182;254;1234;-40
2022/01/26 07:21:39;;;;;;;;;;;21.10;31.90;;;;;;466194;255;1362;-40
2022/01/26 07:23:40;;;;;;;;;;;21.10;32.00;;;;;;466266;254;1244;-40
2022/01/26 07:25:42;;;;;;;;;;;21.10;32.00;;;;;;466159;254;1077;-40
2022/01/26 07:27:43;;;;;;;;;;;21.10;31.90;;;;;;466229;254;2205;-40
2022/01/26 07:29:48;;;;;;;;;;;21.10;31.90;;;;;;466323;254;1058;-40
2022/01/26 07:31:47;;;;;;;;;;;21.10;31.80;;;;;;465848;255;2041;-40
2022/01/26 07:33:53;;;;;;;;;;;21.10;31.80;;;;;;466009;255;2415;-40
2022/01/26 07:35:48;;;;;;;;;;;21.10;31.90;;;;;;465823;255;2111;-39
2022/01/26 07:37:52;;;;;;;;;;;21.10;31.90;;;;;;466151;254;1278;-40
2022/01/26 07:40:03;;;;;;;;;;;21.00;31.90;;;;;;466141;255;2360;-40
2022/01/26 07:41:54;;;;;;;;;;;21.10;31.90;;;;;;465363;255;2324;-40
2022/01/26 07:43:55;;;;;;;;;;;21.10;31.80;;;;;;465976;254;1209;-40
2022/01/26 07:45:57;;;;;;;;;;;21.10;31.80;;;;;;466186;254;1368;-40
2022/01/26 07:47:58;;;;;;;;;;;21.10;31.80;;;;;;466053;254;2196;-40
2022/01/26 07:49:59;;;;;;;;;;;21.10;31.80;;;;;;466170;254;1101;-40
2022/01/26 07:52:01;;;;;;;;;;;21.10;31.80;;;;;;465977;254;1297;-40
2022/01/26 07:54:02;;;;;;;;;;;21.00;31.70;;;;;;466040;254;1201;-40
2022/01/26 07:56:03;;;;;;;;;;;21.00;31.70;;;;;;465950;254;1069;-40
2022/01/26 07:58:05;;;;;;;;;;;21.10;31.70;;;;;;465872;254;1343;-40
2022/01/26 08:00:06;;;;;;;;;;;21.10;31.70;;;;;;465811;254;1116;-40
2022/01/26 08:02:07;;;;;;;;;;;21.10;31.70;;;;;;466042;254;1200;-40
2022/01/26 08:04:09;;;;;;;;;;;21.00;31.70;;;;;;466043;254;1241;-40
2022/01/26 08:06:14;;;;;;;;;;;21.10;31.70;;;;;;465932;254;1150;-40
2022/01/26 08:08:11;;;;;;;;;;;21.10;31.70;;;;;;465904;255;2193;-40
2022/01/26 08:10:13;;;;;;;;;;;21.00;31.70;;;;;;465781;254;1161;-40
2022/01/26 08:12:15;;;;;;;;;;;21.00;31.70;;;;;;466099;254;1538;-40
2022/01/26 08:14:16;;;;;;;;;;;21.00;31.60;;;;;;466187;254;1099;-40
2022/01/26 08:16:17;;;;;;;;;;;21.00;31.60;;;;;;466052;254;1476;-39
2022/01/26 08:18:18;;;;;;;;;;;21.00;31.70;;;;;;465966;254;1180;-40
2022/01/26 08:20:21;;;;;;;;;;;21.00;31.70;;;;;;465990;254;1098;-40
2022/01/26 08:22:22;;;;;;;;;;;21.00;31.70;;;;;;465930;254;1266;-40
2022/01/26 08:24:23;;;;;;;;;;;21.00;31.60;;;;;;465935;254;2683;-40
2022/01/26 08:26:33;;;;;;;;;;;21.00;31.50;;;;;;465678;254;1259;-40
2022/01/26 08:28:30;;;;;;;;;;;21.00;31.60;;;;;;465084;255;2202;-40
2022/01/26 08:30:28;;;;;;;;;;;21.00;31.60;;;;;;465447;255;1381;-40
2022/01/26 08:32:29;;;;;;;;;;;21.00;31.50;;;;;;465784;254;1157;-40
2022/01/26 08:34:30;;;;;;;;;;;21.10;31.50;;;;;;465816;254;1113;-40
2022/01/26 08:36:31;;;;;;;;;;;21.00;31.50;;;;;;465758;254;1147;-40
2022/01/26 08:38:33;;;;;;;;;;;21.00;31.40;;;;;;465814;254;1076;-40
2022/01/26 08:40:34;;;;;;;;;;;21.00;31.50;;;;;;465962;254;1456;-40
2022/01/26 08:42:37;;;;;;;;;;;21.00;31.50;;;;;;466037;254;1267;-40
2022/01/26 08:44:37;;;;;;;;;;;21.00;31.60;;;;;;466061;254;1821;-40
2022/01/26 08:46:38;;;;;;;;;;;20.90;31.50;;;;;;465876;254;1111;-40
2022/01/26 08:48:39;;;;;;;;;;;20.90;31.50;;;;;;465920;254;2197;-40
2022/01/26 08:50:41;;;;;;;;;;;20.90;31.50;;;;;;465803;254;1111;-39
2022/01/26 08:52:42;;;;;;;;;;;20.90;31.50;;;;;;465876;254;1357;-40
2022/01/26 08:54:43;;;;;;;;;;;20.90;31.50;;;;;;465923;254;1140;-40
2022/01/26 08:56:45;;;;;;;;;;;20.90;31.50;;;;;;465866;254;1300;-40
2022/01/26 08:58:46;;;;;;;;;;;20.90;31.50;;;;;;465549;254;1153;-40
2022/01/26 09:00:47;;;;;;;;;;;20.90;31.50;;;;;;465623;254;1145;-40
2022/01/26 09:02:51;;;;;;;;;;;20.90;31.50;;;;;;459289;254;1297;-40
2022/01/26 09:04:50;;;;;;;;;;;20.90;31.50;;;;;;463352;256;2050;-40
2022/01/26 09:06:54;;;;;;;;;;;20.90;31.50;;;;;;465647;254;1086;-40
2022/01/26 09:09:00;;;;;;;;;;;20.90;31.50;;;;;;465647;255;2153;-40
2022/01/26 09:10:59;;;;;;;;;;;20.90;31.50;;;;;;465323;255;2174;-40
2022/01/26 09:12:55;;;;;;;;;;;20.80;31.40;;;;;;465433;255;1588;-40
2022/01/26 09:15:00;;;;;;;;;;;20.90;31.50;;;;;;465787;254;1115;-40
2022/01/26 09:16:59;;;;;;;;;;;20.90;31.40;;;;;;465767;255;2151;-40
2022/01/26 09:19:07;;;;;;;;;;;20.90;31.40;;;;;;465976;254;1230;-40
2022/01/26 09:21:01;;;;;;;;;;;20.90;31.50;;;;;;465516;255;1548;-40
2022/01/26 09:23:03;;;;;;;;;;;20.80;31.40;;;;;;466156;254;1118;-39
2022/01/26 09:25:04;;;;;;;;;;;20.80;31.40;;;;;;466025;254;1113;-40
2022/01/26 09:27:06;;;;;;;;;;;20.80;31.40;;;;;;465846;254;2121;-40
2022/01/26 09:29:07;;;;;;;;;;;20.90;31.50;;;;;;465923;254;1246;-40
2022/01/26 09:31:08;;;;;;;;;;;20.80;31.40;;;;;;465706;254;1092;-40
2022/01/26 09:33:09;;;;;;;;;;;20.80;31.40;;;;;;465519;254;1276;-40
2022/01/26 09:35:11;;;;;;;;;;;20.80;31.50;;;;;;465727;254;1144;-40
2022/01/26 09:37:12;;;;;;;;;;;20.80;31.40;;;;;;465716;254;1256;-40
2022/01/26 09:39:13;;;;;;;;;;;20.80;31.50;;;;;;465889;254;1138;-40
2022/01/26 09:41:14;;;;;;;;;;;20.70;31.40;;;;;;465857;254;1218;-40
2022/01/26 09:43:17;;;;;;;;;;;20.70;31.40;;;;;;465911;254;1148;-40
2022/01/26 09:45:17;;;;;;;;;;;20.80;31.40;;;;;;465876;254;1819;-40
2022/01/26 09:47:19;;;;;;;;;;;20.80;31.40;;;;;;465877;254;2138;-40
2022/01/26 09:49:20;;;;;;;;;;;20.80;31.40;;;;;;465947;254;1197;-40
2022/01/26 09:51:21;;;;;;;;;;;20.80;31.40;;;;;;465900;254;1452;-40
2022/01/26 09:53:27;;;;;;;;;;;20.70;31.30;;;;;;466202;254;1084;-40
2022/01/26 09:55:24;;;;;;;;;;;20.80;31.30;;;;;;465660;255;1255;-40
2022/01/26 09:57:26;;;;;;;;;;;20.70;31.30;;;;;;465745;254;1140;-40
2022/01/26 09:59:27;;;;;;;;;;;20.70;31.30;;;;;;465805;254;1110;-40
2022/01/26 10:01:28;;;;;;;;;;;20.70;31.20;;;;;;465904;254;1450;-39
2022/01/26 10:03:32;;;;;;;;;;;20.80;31.30;;;;;;466203;254;1109;-40
2022/01/26 10:05:31;;;;;;;;;;;20.80;31.30;;;;;;465807;255;2020;-40
2022/01/26 10:07:46;;;;;;;;;;;20.70;31.20;;;;;;465966;254;2208;-40
2022/01/26 10:10:01;;;;;;;;;;;20.70;31.20;;;;;;465685;255;1390;-40
2022/01/26 10:17:20;;;;;;;;;;;20.70;31.20;;;;;;455599;255;1305;-40
2022/01/26 10:19:04;;;;;;;;;;;20.70;31.20;;;;;;464569;255;2573;-40
2022/01/26 10:21:06;;;;;;;;;;;20.70;31.20;;;;;;465711;254;1153;-40
2022/01/26 10:23:07;;;;;;;;;;;20.70;31.20;;;;;;465713;255;2022;-40
2022/01/26 10:25:08;;;;;;;;;;;20.70;31.20;;;;;;465730;254;1092;-40
2022/01/26 10:27:10;;;;;;;;;;;20.70;31.20;;;;;;465645;254;1233;-40
2022/01/26 10:29:11;;;;;;;;;;;20.70;31.10;;;;;;465730;254;2212;-39
2022/01/26 10:31:12;;;;;;;;;;;20.70;31.10;;;;;;465621;254;1067;-40
2022/01/26 10:33:14;;;;;;;;;;;20.70;31.10;;;;;;465715;254;1275;-40
2022/01/26 10:35:15;;;;;;;;;;;20.70;31.10;;;;;;466136;254;1116;-40
2022/01/26 10:37:17;;;;;;;;;;;20.70;31.10;;;;;;465726;254;1093;-40
2022/01/26 10:39:21;;;;;;;;;;;20.70;31.20;;;;;;465696;254;1120;-40
2022/01/26 10:41:20;;;;;;;;;;;20.70;31.20;;;;;;465623;255;1830;-40
2022/01/26 10:43:21;;;;;;;;;;;20.70;31.20;;;;;;465887;254;1118;-40
2022/01/26 10:45:23;;;;;;;;;;;20.60;31.10;;;;;;465898;254;1069;-40
2022/01/26 10:47:24;;;;;;;;;;;20.70;31.20;;;;;;465825;254;2120;-40
2022/01/26 10:49:42;;;;;;;;;;;20.70;31.10;;;;;;465927;254;2137;-40
2022/01/26 10:51:42;;;;;;;;;;;20.70;31.10;;;;;;465134;255;1314;-40
2022/01/26 10:53:43;;;;;;;;;;;20.70;31.10;;;;;;465409;255;2229;-40
2022/01/26 10:55:41;;;;;;;;;;;20.70;31.00;;;;;;465647;255;2396;-40
2022/01/26 10:57:43;;;;;;;;;;;20.70;31.00;;;;;;466021;254;1242;-40
2022/01/26 10:59:44;;;;;;;;;;;20.70;31.00;;;;;;465953;254;1078;-40
2022/01/26 11:01:45;;;;;;;;;;;20.70;31.00;;;;;;465842;254;1093;-40
2022/01/26 11:03:47;;;;;;;;;;;20.70;31.00;;;;;;464043;254;1269;-40
2022/01/26 11:05:48;;;;;;;;;;;20.70;31.00;;;;;;464256;255;1090;-40
2022/01/26 11:07:50;;;;;;;;;;;20.70;30.90;;;;;;467175;254;2196;-40
2022/01/26 11:09:51;;;;;;;;;;;20.70;31.00;;;;;;466433;253;1150;-40
2022/01/26 11:11:52;;;;;;;;;;;20.70;30.90;;;;;;465964;254;1360;-40
2022/01/26 11:13:53;;;;;;;;;;;20.80;31.00;;;;;;466105;254;1107;-40
2022/01/26 11:15:55;;;;;;;;;;;20.70;30.90;;;;;;465858;254;1162;-40
2022/01/26 11:17:56;;;;;;;;;;;20.70;30.80;;;;;;465639;254;1171;-39
2022/01/26 11:19:57;;;;;;;;;;;20.70;30.80;;;;;;465681;254;1192;-40
2022/01/26 11:21:59;;;;;;;;;;;20.80;30.90;;;;;;465735;254;1169;-40
2022/01/26 11:24:00;;;;;;;;;;;20.80;30.90;;;;;;466050;254;1132;-40
2022/01/26 11:26:01;;;;;;;;;;;20.80;30.90;;;;;;466013;254;1153;-40
2022/01/26 11:28:03;;;;;;;;;;;20.70;30.80;;;;;;465998;254;2201;-40
2022/01/26 11:30:05;;;;;;;;;;;20.70;30.80;;;;;;465913;254;1098;-40
2022/01/26 11:32:07;;;;;;;;;;;20.80;30.90;;;;;;466001;254;2084;-40
2022/01/26 11:34:08;;;;;;;;;;;20.80;30.90;;;;;;466380;255;2182;-40
2022/01/26 11:36:09;;;;;;;;;;;20.70;30.80;;;;;;466127;254;2630;-40
2022/01/26 11:38:16;;;;;;;;;;;20.70;30.80;;;;;;465743;254;1179;-40
2022/01/26 11:45:06;;;;;;;;;;;20.80;30.80;;;;;;456694;255;1384;-40
2022/01/26 11:47:06;;;;;;;;;;;20.70;30.80;;;;;;465682;255;2136;-40
2022/01/26 11:49:07;;;;;;;;;;;20.80;30.80;;;;;;465866;254;2209;-40
2022/01/26 11:51:08;;;;;;;;;;;20.70;30.70;;;;;;465901;254;1071;-40
2022/01/26 11:53:10;;;;;;;;;;;20.80;30.80;;;;;;465901;254;1460;-40
2022/01/26 11:55:11;;;;;;;;;;;20.80;30.80;;;;;;466100;254;1112;-40
2022/01/26 11:57:15;;;;;;;;;;;20.70;30.70;;;;;;465738;254;1284;-40
2022/01/26 11:59:14;;;;;;;;;;;20.80;30.80;;;;;;465637;255;1745;-40
2022/01/26 12:01:19;;;;;;;;;;;20.80;30.70;;;;;;465764;254;1221;-40
2022/01/26 12:03:16;;;;;;;;;;;20.80;30.70;;;;;;465350;255;2207;-40
2022/01/26 12:05:18;;;;;;;;;;;20.80;30.70;;;;;;465707;254;1143;-40
2022/01/26 12:07:22;;;;;;;;;;;20.70;30.70;;;;;;465784;256;2475;-40
2022/01/26 12:09:21;;;;;;;;;;;20.70;30.70;;;;;;465831;255;2342;-40
2022/01/26 12:11:23;;;;;;;;;;;20.70;30.70;;;;;;466237;254;1427;-40
2022/01/26 12:13:23;;;;;;;;;;;20.70;30.70;;;;;;466080;254;2054;-40
2022/01/26 12:15:25;;;;;;;;;;;20.80;30.80;;;;;;465819;255;1108;-40
2022/01/26 12:17:30;;;;;;;;;;;20.80;30.80;;;;;;465871;254;1255;-40
2022/01/26 12:19:34;;;;;;;;;;;20.80;30.80;;;;;;465688;255;2074;-40
2022/01/26 12:33:45;;;;;;;;;;;20.70;30.70;;;;;;465663;255;1096;-40
2022/01/26 12:35:38;;;;;;;;;;;20.80;30.80;;;;;;464425;255;2263;-40
2022/01/26 12:37:40;;;;;;;;;;;20.80;30.70;;;;;;465403;255;1796;-40
2022/01/26 12:41:56;;;;;;;;;;;20.70;30.70;;;;;;465705;255;1427;-40
2022/01/26 12:43:57;;;;;;;;;;;20.80;30.70;;;;;;465929;254;1115;-40
2022/01/26 12:45:59;;;;;;;;;;;20.80;30.70;;;;;;465801;254;1077;-40
2022/01/26 12:48:00;;;;;;;;;;;20.80;30.70;;;;;;465804;254;1446;-40
2022/01/26 12:50:01;;;;;;;;;;;20.80;30.70;;;;;;465757;254;2141;-40
2022/01/26 12:52:03;;;;;;;;;;;20.80;30.70;;;;;;465864;254;1397;-40
2022/01/26 12:54:04;;;;;;;;;;;20.70;30.70;;;;;;465972;254;1103;-40
2022/01/26 12:56:05;;;;;;;;;;;20.70;30.70;;;;;;465932;254;1208;-40
2022/01/26 12:58:07;;;;;;;;;;;20.70;30.70;;;;;;465785;254;1113;-40
2022/01/26 13:00:08;;;;;;;;;;;20.70;30.70;;;;;;465866;254;1118;-39
2022/01/26 13:02:09;;;;;;;;;;;20.70;30.80;;;;;;465695;254;1087;-40
2022/01/26 13:04:10;;;;;;;;;;;20.70;30.80;;;;;;465659;254;1122;-39
2022/01/26 13:06:12;;;;;;;;;;;20.70;30.70;;;;;;465711;254;1190;-40
2022/01/26 13:08:13;;;;;;;;;;;20.70;30.70;;;;;;465674;254;2210;-40
2022/01/26 13:10:15;;;;;;;;;;;20.70;30.70;;;;;;465798;254;1095;-40
2022/01/26 13:12:18;;;;;;;;;;;20.70;30.70;;;;;;465811;254;1142;-40
2022/01/26 13:14:20;;;;;;;;;;;20.70;30.70;;;;;;465905;255;2305;-40
2022/01/26 13:16:21;;;;;;;;;;;20.70;30.80;;;;;;465707;255;1602;-39
2022/01/26 13:18:33;;;;;;;;;;;20.60;30.80;;;;;;465742;255;1757;-39
2022/01/26 13:20:35;;;;;;;;;;;20.60;30.70;;;;;;465277;255;1971;-40
2022/01/26 13:24:56;;;;;;;;;;;20.60;30.80;;;;;;465858;254;1194;-40
2022/01/26 13:26:57;;;;;;;;;;;20.60;30.80;;;;;;465400;255;2079;-39
2022/01/26 13:29:07;;;;;;;;;;;20.60;30.80;;;;;;465530;255;2194;-40
2022/01/26 13:31:33;;;;;;;;;;;20.70;30.80;;;;;;465223;255;2019;-40
2022/01/26 13:36:00;;;;;;;;;;;20.60;30.80;;;;;;449612;262;1270;-40
2022/01/26 13:38:15;;;;;;;;;;;20.60;30.80;;;;;;448644;265;1937;-40
2022/01/26 13:40:22;;;;;;;;;;;20.60;30.80;;;;;;465771;255;1864;-39
2022/01/26 13:44:56;;;;;;;;;;;20.60;30.70;;;;;;458147;255;1288;-39